sensor_id;sensor_type;location;lat;lon;timestamp;temperature;humidity
12885;DHT22;6510;51.362;7.370;2023-07-08T00:01:12;20.00;99.90
12885;DHT22;6510;51.362;7.370;2023-07-08T00:03:38;20.00;99.90
12885;DHT22;6510;51.362;7.370;2023-07-08T00:06:04;20.00;99.90
12885;DHT22;6510;51.362;7.370;2023-07-08T00:08:30;20.00;99.90
12885;DHT22;6510;51.362;7.370;2023-07-08T00:10:55;19.90;99.90
12885;DHT22;6510;51.362;7.370;2023-07-08T00:13:21;19.90;99.90
12885;DHT22;6510;51.362;7.370;2023-07-08T00:15:47;19.90;99.90
12885;DHT22;6510;51.362;7.370;2023-07-08T00:18:16;19.90;99.90
12885;DHT22;6510;51.362;7.370;2023-07-08T00:20:44;19.90;99.90
12885;DHT22;6510;51.362;7.370;2023-07-08T00:23:10;19.80;99.90
12885;DHT22;6510;51.362;7.370;2023-07-08T00:25:37;19.80;99.90
12885;DHT22;6510;51.362;7.370;2023-07-08T00:28:12;19.80;99.90
12885;DHT22;6510;51.362;7.370;2023-07-08T00:30:39;19.80;99.90
12885;DHT22;6510;51.362;7.370;2023-07-08T00:33:06;19.70;99.90
12885;DHT22;6510;51.362;7.370;2023-07-08T00:35:42;19.80;99.90
12885;DHT22;6510;51.362;7.370;2023-07-08T00:40:58;19.60;99.90
12885;DHT22;6510;51.362;7.370;2023-07-08T00:43:34;19.50;99.90
12885;DHT22;6510;51.362;7.370;2023-07-08T00:48:55;19.40;99.90
12885;DHT22;6510;51.362;7.370;2023-07-08T00:51:23;19.40;99.90
12885;DHT22;6510;51.362;7.370;2023-07-08T00:53:49;19.40;99.90
12885;DHT22;6510;51.362;7.370;2023-07-08T00:56:34;19.40;99.90
12885;DHT22;6510;51.362;7.370;2023-07-08T00:59:11;19.40;99.90
12885;DHT22;6510;51.362;7.370;2023-07-08T01:01:40;19.30;99.90
12885;DHT22;6510;51.362;7.370;2023-07-08T01:04:11;19.20;99.90
12885;DHT22;6510;51.362;7.370;2023-07-08T01:06:40;19.20;99.90
12885;DHT22;6510;51.362;7.370;2023-07-08T01:09:08;19.00;99.90
12885;DHT22;6510;51.362;7.370;2023-07-08T01:11:37;19.00;99.90
12885;DHT22;6510;51.362;7.370;2023-07-08T01:14:06;18.90;99.90
12885;DHT22;6510;51.362;7.370;2023-07-08T01:16:32;18.90;99.90
12885;DHT22;6510;51.362;7.370;2023-07-08T01:19:00;18.90;99.90
12885;DHT22;6510;51.362;7.370;2023-07-08T01:21:39;18.90;99.90
12885;DHT22;6510;51.362;7.370;2023-07-08T01:24:08;18.80;99.90
12885;DHT22;6510;51.362;7.370;2023-07-08T01:26:39;18.70;99.90
12885;DHT22;6510;51.362;7.370;2023-07-08T01:29:06;18.70;99.90
12885;DHT22;6510;51.362;7.370;2023-07-08T01:31:33;18.60;99.90
12885;DHT22;6510;51.362;7.370;2023-07-08T01:33:59;18.60;99.90
12885;DHT22;6510;51.362;7.370;2023-07-08T01:36:26;18.50;99.90
12885;DHT22;6510;51.362;7.370;2023-07-08T01:38:55;18.50;99.90
12885;DHT22;6510;51.362;7.370;2023-07-08T01:41:20;18.50;99.90
12885;DHT22;6510;51.362;7.370;2023-07-08T01:43:46;18.40;99.90
12885;DHT22;6510;51.362;7.370;2023-07-08T01:46:17;18.40;99.90
12885;DHT22;6510;51.362;7.370;2023-07-08T01:48:50;18.30;99.90
12885;DHT22;6510;51.362;7.370;2023-07-08T01:51:17;18.20;99.90
12885;DHT22;6510;51.362;7.370;2023-07-08T01:53:43;18.20;99.90
12885;DHT22;6510;51.362;7.370;2023-07-08T01:56:11;18.20;99.90
12885;DHT22;6510;51.362;7.370;2023-07-08T01:58:37;18.20;99.90
12885;DHT22;6510;51.362;7.370;2023-07-08T02:01:03;18.10;99.90
12885;DHT22;6510;51.362;7.370;2023-07-08T02:03:29;18.10;99.90
12885;DHT22;6510;51.362;7.370;2023-07-08T02:05:54;18.10;99.90
12885;DHT22;6510;51.362;7.370;2023-07-08T02:08:20;18.20;99.90
12885;DHT22;6510;51.362;7.370;2023-07-08T02:10:52;18.10;99.90
12885;DHT22;6510;51.362;7.370;2023-07-08T02:13:19;18.20;99.90
12885;DHT22;6510;51.362;7.370;2023-07-08T02:15:45;18.20;99.90
12885;DHT22;6510;51.362;7.370;2023-07-08T02:18:10;18.20;99.90
12885;DHT22;6510;51.362;7.370;2023-07-08T02:20:36;18.20;99.90
12885;DHT22;6510;51.362;7.370;2023-07-08T02:23:02;18.10;99.90
12885;DHT22;6510;51.362;7.370;2023-07-08T02:25:27;18.10;99.90
12885;DHT22;6510;51.362;7.370;2023-07-08T02:27:54;18.10;99.90
12885;DHT22;6510;51.362;7.370;2023-07-08T02:30:26;18.10;99.90
12885;DHT22;6510;51.362;7.370;2023-07-08T02:32:53;18.20;99.90
12885;DHT22;6510;51.362;7.370;2023-07-08T02:35:26;18.20;99.90
12885;DHT22;6510;51.362;7.370;2023-07-08T02:37:53;18.30;99.90
12885;DHT22;6510;51.362;7.370;2023-07-08T02:40:20;18.30;99.90
12885;DHT22;6510;51.362;7.370;2023-07-08T02:42:46;18.40;99.90
12885;DHT22;6510;51.362;7.370;2023-07-08T02:45:12;18.40;99.90
12885;DHT22;6510;51.362;7.370;2023-07-08T02:47:38;18.40;99.90
12885;DHT22;6510;51.362;7.370;2023-07-08T02:50:05;18.40;99.90
12885;DHT22;6510;51.362;7.370;2023-07-08T02:52:31;18.40;99.90
12885;DHT22;6510;51.362;7.370;2023-07-08T02:54:56;18.40;99.90
12885;DHT22;6510;51.362;7.370;2023-07-08T02:57:22;18.40;99.90
12885;DHT22;6510;51.362;7.370;2023-07-08T02:59:47;18.30;99.90
12885;DHT22;6510;51.362;7.370;2023-07-08T03:02:13;18.40;99.90
12885;DHT22;6510;51.362;7.370;2023-07-08T03:04:39;18.30;99.90
12885;DHT22;6510;51.362;7.370;2023-07-08T03:07:07;18.20;99.90
12885;DHT22;6510;51.362;7.370;2023-07-08T03:09:37;18.20;99.90
12885;DHT22;6510;51.362;7.370;2023-07-08T03:12:03;18.20;99.90
12885;DHT22;6510;51.362;7.370;2023-07-08T03:14:29;18.20;99.90
12885;DHT22;6510;51.362;7.370;2023-07-08T03:16:54;18.10;99.90
12885;DHT22;6510;51.362;7.370;2023-07-08T03:19:20;18.00;99.90
12885;DHT22;6510;51.362;7.370;2023-07-08T03:21:46;17.90;99.90
12885;DHT22;6510;51.362;7.370;2023-07-08T03:24:12;17.90;99.90
12885;DHT22;6510;51.362;7.370;2023-07-08T03:26:38;18.00;99.90
12885;DHT22;6510;51.362;7.370;2023-07-08T03:29:04;18.10;99.90
12885;DHT22;6510;51.362;7.370;2023-07-08T03:31:29;18.40;99.90
12885;DHT22;6510;51.362;7.370;2023-07-08T03:33:55;18.50;99.90
12885;DHT22;6510;51.362;7.370;2023-07-08T03:36:21;18.60;99.90
12885;DHT22;6510;51.362;7.370;2023-07-08T03:38:51;18.90;99.90
12885;DHT22;6510;51.362;7.370;2023-07-08T03:41:17;19.00;99.90
12885;DHT22;6510;51.362;7.370;2023-07-08T03:43:43;19.20;99.90
12885;DHT22;6510;51.362;7.370;2023-07-08T03:46:13;19.10;99.90
12885;DHT22;6510;51.362;7.370;2023-07-08T03:48:39;19.00;99.90
12885;DHT22;6510;51.362;7.370;2023-07-08T03:51:11;18.90;99.90
12885;DHT22;6510;51.362;7.370;2023-07-08T03:53:40;18.70;99.90
12885;DHT22;6510;51.362;7.370;2023-07-08T03:56:07;18.50;99.90
12885;DHT22;6510;51.362;7.370;2023-07-08T03:58:33;18.40;99.90
12885;DHT22;6510;51.362;7.370;2023-07-08T04:00:59;18.40;99.90
12885;DHT22;6510;51.362;7.370;2023-07-08T04:03:24;18.30;99.90
12885;DHT22;6510;51.362;7.370;2023-07-08T04:05:50;18.30;99.90
12885;DHT22;6510;51.362;7.370;2023-07-08T04:08:15;18.20;99.90
12885;DHT22;6510;51.362;7.370;2023-07-08T04:10:43;18.20;99.90
12885;DHT22;6510;51.362;7.370;2023-07-08T04:13:09;18.20;99.90
12885;DHT22;6510;51.362;7.370;2023-07-08T04:15:34;18.20;99.90
12885;DHT22;6510;51.362;7.370;2023-07-08T04:18:00;18.30;99.90
12885;DHT22;6510;51.362;7.370;2023-07-08T04:20:25;18.30;99.90
12885;DHT22;6510;51.362;7.370;2023-07-08T04:22:51;18.30;99.90
12885;DHT22;6510;51.362;7.370;2023-07-08T04:25:18;18.30;99.90
12885;DHT22;6510;51.362;7.370;2023-07-08T04:27:44;18.40;99.90
12885;DHT22;6510;51.362;7.370;2023-07-08T04:30:20;18.40;99.90
12885;DHT22;6510;51.362;7.370;2023-07-08T04:32:46;18.50;99.90
12885;DHT22;6510;51.362;7.370;2023-07-08T04:35:12;18.50;99.90
12885;DHT22;6510;51.362;7.370;2023-07-08T04:37:38;18.60;99.90
12885;DHT22;6510;51.362;7.370;2023-07-08T04:40:04;18.60;99.90
12885;DHT22;6510;51.362;7.370;2023-07-08T04:42:30;18.60;99.90
12885;DHT22;6510;51.362;7.370;2023-07-08T04:44:56;18.60;99.90
12885;DHT22;6510;51.362;7.370;2023-07-08T04:47:21;18.70;99.90
12885;DHT22;6510;51.362;7.370;2023-07-08T04:49:47;18.80;99.90
12885;DHT22;6510;51.362;7.370;2023-07-08T04:52:12;18.90;99.90
12885;DHT22;6510;51.362;7.370;2023-07-08T04:54:38;19.10;99.90
12885;DHT22;6510;51.362;7.370;2023-07-08T04:57:04;19.20;99.90
12885;DHT22;6510;51.362;7.370;2023-07-08T04:59:30;19.40;99.90
12885;DHT22;6510;51.362;7.370;2023-07-08T05:01:59;19.50;99.90
12885;DHT22;6510;51.362;7.370;2023-07-08T05:04:25;19.70;99.90
12885;DHT22;6510;51.362;7.370;2023-07-08T05:06:51;19.90;99.90
12885;DHT22;6510;51.362;7.370;2023-07-08T05:09:17;20.10;99.90
12885;DHT22;6510;51.362;7.370;2023-07-08T05:11:43;20.90;99.90
12885;DHT22;6510;51.362;7.370;2023-07-08T05:14:11;21.70;99.90
12885;DHT22;6510;51.362;7.370;2023-07-08T05:16:38;22.40;99.90
12885;DHT22;6510;51.362;7.370;2023-07-08T05:19:03;23.00;99.90
12885;DHT22;6510;51.362;7.370;2023-07-08T05:21:30;23.60;99.90
12885;DHT22;6510;51.362;7.370;2023-07-08T05:23:59;24.20;99.90
12885;DHT22;6510;51.362;7.370;2023-07-08T05:26:25;24.70;99.90
12885;DHT22;6510;51.362;7.370;2023-07-08T05:28:50;25.10;99.90
12885;DHT22;6510;51.362;7.370;2023-07-08T05:31:16;25.20;98.40
12885;DHT22;6510;51.362;7.370;2023-07-08T05:33:41;25.40;99.20
12885;DHT22;6510;51.362;7.370;2023-07-08T05:36:07;25.60;98.60
12885;DHT22;6510;51.362;7.370;2023-07-08T05:38:33;25.90;98.50
12885;DHT22;6510;51.362;7.370;2023-07-08T05:40:59;26.10;96.60
12885;DHT22;6510;51.362;7.370;2023-07-08T05:43:25;26.30;94.90
12885;DHT22;6510;51.362;7.370;2023-07-08T05:45:51;26.40;95.50
12885;DHT22;6510;51.362;7.370;2023-07-08T05:48:17;26.60;92.40
12885;DHT22;6510;51.362;7.370;2023-07-08T05:50:44;26.80;92.30
12885;DHT22;6510;51.362;7.370;2023-07-08T05:53:10;27.00;91.60
12885;DHT22;6510;51.362;7.370;2023-07-08T05:55:36;27.10;91.10
12885;DHT22;6510;51.362;7.370;2023-07-08T05:58:02;27.20;90.70
12885;DHT22;6510;51.362;7.370;2023-07-08T06:00:27;27.50;88.80
12885;DHT22;6510;51.362;7.370;2023-07-08T06:02:53;27.80;88.60
12885;DHT22;6510;51.362;7.370;2023-07-08T06:05:18;28.30;86.40
12885;DHT22;6510;51.362;7.370;2023-07-08T06:07:44;28.80;84.70
12885;DHT22;6510;51.362;7.370;2023-07-08T06:10:10;28.60;82.40
12885;DHT22;6510;51.362;7.370;2023-07-08T06:12:36;29.10;81.60
12885;DHT22;6510;51.362;7.370;2023-07-08T06:15:01;29.10;81.00
12885;DHT22;6510;51.362;7.370;2023-07-08T06:17:27;28.90;82.30
12885;DHT22;6510;51.362;7.370;2023-07-08T06:19:53;29.20;77.60
12885;DHT22;6510;51.362;7.370;2023-07-08T06:22:18;29.40;75.70
12885;DHT22;6510;51.362;7.370;2023-07-08T06:24:44;29.60;78.20
12885;DHT22;6510;51.362;7.370;2023-07-08T06:27:10;29.90;77.10
12885;DHT22;6510;51.362;7.370;2023-07-08T06:29:35;30.20;77.40
12885;DHT22;6510;51.362;7.370;2023-07-08T06:32:02;30.30;72.70
12885;DHT22;6510;51.362;7.370;2023-07-08T06:34:27;30.90;74.10
12885;DHT22;6510;51.362;7.370;2023-07-08T06:36:53;31.20;71.60
12885;DHT22;6510;51.362;7.370;2023-07-08T06:39:19;31.40;68.00
12885;DHT22;6510;51.362;7.370;2023-07-08T06:41:45;31.60;71.40
12885;DHT22;6510;51.362;7.370;2023-07-08T06:44:11;31.60;63.80
12885;DHT22;6510;51.362;7.370;2023-07-08T06:46:36;31.50;65.00
12885;DHT22;6510;51.362;7.370;2023-07-08T06:49:02;31.60;65.60
12885;DHT22;6510;51.362;7.370;2023-07-08T06:51:28;32.30;63.00
12885;DHT22;6510;51.362;7.370;2023-07-08T06:53:53;32.10;63.80
12885;DHT22;6510;51.362;7.370;2023-07-08T06:56:19;32.00;64.10
12885;DHT22;6510;51.362;7.370;2023-07-08T06:58:45;32.50;64.50
12885;DHT22;6510;51.362;7.370;2023-07-08T07:01:11;32.90;62.60
12885;DHT22;6510;51.362;7.370;2023-07-08T07:03:37;33.20;62.70
12885;DHT22;6510;51.362;7.370;2023-07-08T07:06:03;33.40;62.00
12885;DHT22;6510;51.362;7.370;2023-07-08T07:08:28;33.00;59.80
12885;DHT22;6510;51.362;7.370;2023-07-08T07:10:54;33.20;60.60
12885;DHT22;6510;51.362;7.370;2023-07-08T07:13:20;33.40;59.50
12885;DHT22;6510;51.362;7.370;2023-07-08T07:15:48;33.40;61.20
12885;DHT22;6510;51.362;7.370;2023-07-08T07:18:14;33.30;63.20
12885;DHT22;6510;51.362;7.370;2023-07-08T07:20:48;33.90;59.70
12885;DHT22;6510;51.362;7.370;2023-07-08T07:23:15;33.50;62.40
12885;DHT22;6510;51.362;7.370;2023-07-08T07:25:41;33.40;59.70
12885;DHT22;6510;51.362;7.370;2023-07-08T07:28:07;33.10;61.20
12885;DHT22;6510;51.362;7.370;2023-07-08T07:30:33;33.00;57.80
12885;DHT22;6510;51.362;7.370;2023-07-08T07:32:59;32.50;62.00
12885;DHT22;6510;51.362;7.370;2023-07-08T07:35:25;32.90;59.90
12885;DHT22;6510;51.362;7.370;2023-07-08T07:37:51;33.10;60.50
12885;DHT22;6510;51.362;7.370;2023-07-08T07:40:17;32.40;59.20
12885;DHT22;6510;51.362;7.370;2023-07-08T07:42:44;33.10;59.40
12885;DHT22;6510;51.362;7.370;2023-07-08T07:45:10;33.80;59.10
12885;DHT22;6510;51.362;7.370;2023-07-08T07:47:36;34.40;56.10
12885;DHT22;6510;51.362;7.370;2023-07-08T07:50:04;34.60;57.80
12885;DHT22;6510;51.362;7.370;2023-07-08T07:52:30;35.00;56.90
12885;DHT22;6510;51.362;7.370;2023-07-08T07:54:56;34.70;57.90
12885;DHT22;6510;51.362;7.370;2023-07-08T07:57:23;34.80;57.40
12885;DHT22;6510;51.362;7.370;2023-07-08T07:59:49;35.10;56.70
12885;DHT22;6510;51.362;7.370;2023-07-08T08:02:15;34.90;56.70
12885;DHT22;6510;51.362;7.370;2023-07-08T08:04:41;35.00;58.20
12885;DHT22;6510;51.362;7.370;2023-07-08T08:07:06;36.00;57.60
12885;DHT22;6510;51.362;7.370;2023-07-08T08:09:32;36.90;56.30
12885;DHT22;6510;51.362;7.370;2023-07-08T08:11:58;36.20;54.80
12885;DHT22;6510;51.362;7.370;2023-07-08T08:14:23;35.40;56.30
12885;DHT22;6510;51.362;7.370;2023-07-08T08:16:55;33.30;57.40
12885;DHT22;6510;51.362;7.370;2023-07-08T08:19:21;32.30;59.50
12885;DHT22;6510;51.362;7.370;2023-07-08T08:21:48;31.50;62.30
12885;DHT22;6510;51.362;7.370;2023-07-08T08:24:13;33.00;63.10
12885;DHT22;6510;51.362;7.370;2023-07-08T08:26:39;34.50;58.60
12885;DHT22;6510;51.362;7.370;2023-07-08T08:32:19;34.80;57.20
12885;DHT22;6510;51.362;7.370;2023-07-08T08:34:44;35.40;57.10
12885;DHT22;6510;51.362;7.370;2023-07-08T08:37:10;36.90;56.10
12885;DHT22;6510;51.362;7.370;2023-07-08T08:39:36;36.80;55.40
12885;DHT22;6510;51.362;7.370;2023-07-08T08:42:02;36.40;56.20
12885;DHT22;6510;51.362;7.370;2023-07-08T08:44:34;35.20;56.00
12885;DHT22;6510;51.362;7.370;2023-07-08T08:47:06;35.10;56.20
12885;DHT22;6510;51.362;7.370;2023-07-08T08:49:41;35.60;54.60
12885;DHT22;6510;51.362;7.370;2023-07-08T08:52:08;35.30;55.90
12885;DHT22;6510;51.362;7.370;2023-07-08T08:54:33;35.00;54.40
12885;DHT22;6510;51.362;7.370;2023-07-08T08:59:53;35.00;56.20
12885;DHT22;6510;51.362;7.370;2023-07-08T09:02:39;35.90;54.80
12885;DHT22;6510;51.362;7.370;2023-07-08T09:05:09;35.60;55.10
12885;DHT22;6510;51.362;7.370;2023-07-08T09:07:47;36.00;54.80
12885;DHT22;6510;51.362;7.370;2023-07-08T09:13:02;37.00;53.90
12885;DHT22;6510;51.362;7.370;2023-07-08T09:15:33;36.30;54.80
12885;DHT22;6510;51.362;7.370;2023-07-08T09:18:17;35.80;54.40
12885;DHT22;6510;51.362;7.370;2023-07-08T09:20:44;34.00;57.00
12885;DHT22;6510;51.362;7.370;2023-07-08T09:28:16;31.70;60.00
12885;DHT22;6510;51.362;7.370;2023-07-08T09:30:47;31.80;60.70
12885;DHT22;6510;51.362;7.370;2023-07-08T09:33:13;32.40;60.40
12885;DHT22;6510;51.362;7.370;2023-07-08T09:35:41;32.70;59.40
12885;DHT22;6510;51.362;7.370;2023-07-08T09:38:12;32.50;59.60
12885;DHT22;6510;51.362;7.370;2023-07-08T09:40:38;32.90;60.30
12885;DHT22;6510;51.362;7.370;2023-07-08T09:43:27;35.20;56.70
12885;DHT22;6510;51.362;7.370;2023-07-08T09:45:58;37.80;55.30
12885;DHT22;6510;51.362;7.370;2023-07-08T09:48:27;38.70;52.40
12885;DHT22;6510;51.362;7.370;2023-07-08T09:50:54;38.50;53.00
12885;DHT22;6510;51.362;7.370;2023-07-08T09:53:21;38.80;52.40
12885;DHT22;6510;51.362;7.370;2023-07-08T09:55:47;37.70;51.30
12885;DHT22;6510;51.362;7.370;2023-07-08T09:58:19;38.20;53.40
12885;DHT22;6510;51.362;7.370;2023-07-08T10:00:52;38.50;52.00
12885;DHT22;6510;51.362;7.370;2023-07-08T10:03:27;38.80;53.10
12885;DHT22;6510;51.362;7.370;2023-07-08T10:05:55;38.20;50.90
12885;DHT22;6510;51.362;7.370;2023-07-08T10:08:34;38.20;51.80
12885;DHT22;6510;51.362;7.370;2023-07-08T10:11:26;37.20;54.20
12885;DHT22;6510;51.362;7.370;2023-07-08T10:14:20;37.20;54.40
12885;DHT22;6510;51.362;7.370;2023-07-08T10:16:51;38.20;53.10
12885;DHT22;6510;51.362;7.370;2023-07-08T10:19:18;39.80;51.10
12885;DHT22;6510;51.362;7.370;2023-07-08T10:32:37;39.70;51.30
12885;DHT22;6510;51.362;7.370;2023-07-08T10:35:17;40.20;50.50
12885;DHT22;6510;51.362;7.370;2023-07-08T10:40:41;39.80;48.90
12885;DHT22;6510;51.362;7.370;2023-07-08T10:51:12;40.90;48.30
12885;DHT22;6510;51.362;7.370;2023-07-08T10:56:27;39.00;47.90
12885;DHT22;6510;51.362;7.370;2023-07-08T11:06:56;39.90;48.30
12885;DHT22;6510;51.362;7.370;2023-07-08T11:09:39;39.90;48.20
12885;DHT22;6510;51.362;7.370;2023-07-08T11:12:22;40.40;47.10
12885;DHT22;6510;51.362;7.370;2023-07-08T11:17:27;39.90;48.70
12885;DHT22;6510;51.362;7.370;2023-07-08T11:20:16;39.50;47.40
12885;DHT22;6510;51.362;7.370;2023-07-08T11:22:51;40.70;49.80
12885;DHT22;6510;51.362;7.370;2023-07-08T11:25:20;40.80;47.80
12885;DHT22;6510;51.362;7.370;2023-07-08T11:27:49;38.70;48.50
12885;DHT22;6510;51.362;7.370;2023-07-08T11:30:20;38.40;49.40
12885;DHT22;6510;51.362;7.370;2023-07-08T11:32:48;39.80;47.40
12885;DHT22;6510;51.362;7.370;2023-07-08T11:35:32;40.20;46.40
12885;DHT22;6510;51.362;7.370;2023-07-08T11:37:58;40.70;46.20
12885;DHT22;6510;51.362;7.370;2023-07-08T11:40:49;42.40;45.10
12885;DHT22;6510;51.362;7.370;2023-07-08T11:43:16;43.30;43.20
12885;DHT22;6510;51.362;7.370;2023-07-08T11:45:42;40.80;43.60
12885;DHT22;6510;51.362;7.370;2023-07-08T11:48:22;40.10;45.10
12885;DHT22;6510;51.362;7.370;2023-07-08T11:50:50;41.10;44.30
12885;DHT22;6510;51.362;7.370;2023-07-08T11:56:00;42.60;40.70
12885;DHT22;6510;51.362;7.370;2023-07-08T11:58:30;43.10;41.90
12885;DHT22;6510;51.362;7.370;2023-07-08T12:03:37;43.10;40.40
12885;DHT22;6510;51.362;7.370;2023-07-08T12:08:59;42.40;43.80
12885;DHT22;6510;51.362;7.370;2023-07-08T12:11:32;40.20;44.40
12885;DHT22;6510;51.362;7.370;2023-07-08T12:13:59;39.50;45.90
12885;DHT22;6510;51.362;7.370;2023-07-08T12:16:27;40.00;44.80
12885;DHT22;6510;51.362;7.370;2023-07-08T12:18:54;41.20;43.30
12885;DHT22;6510;51.362;7.370;2023-07-08T12:21:23;40.70;45.50
12885;DHT22;6510;51.362;7.370;2023-07-08T12:23:51;41.70;44.90
12885;DHT22;6510;51.362;7.370;2023-07-08T12:26:17;42.40;42.60
12885;DHT22;6510;51.362;7.370;2023-07-08T12:28:43;42.00;42.00
12885;DHT22;6510;51.362;7.370;2023-07-08T12:31:16;42.80;42.30
12885;DHT22;6510;51.362;7.370;2023-07-08T12:33:44;42.80;43.90
12885;DHT22;6510;51.362;7.370;2023-07-08T12:36:20;43.80;41.50
12885;DHT22;6510;51.362;7.370;2023-07-08T12:38:48;44.50;41.80
12885;DHT22;6510;51.362;7.370;2023-07-08T12:41:18;43.00;41.20
12885;DHT22;6510;51.362;7.370;2023-07-08T12:43:45;42.30;42.60
12885;DHT22;6510;51.362;7.370;2023-07-08T12:46:12;42.60;41.80
12885;DHT22;6510;51.362;7.370;2023-07-08T12:48:39;40.50;42.20
12885;DHT22;6510;51.362;7.370;2023-07-08T12:51:09;39.90;43.70
12885;DHT22;6510;51.362;7.370;2023-07-08T12:53:36;40.60;44.20
12885;DHT22;6510;51.362;7.370;2023-07-08T12:56:02;41.80;42.80
12885;DHT22;6510;51.362;7.370;2023-07-08T12:58:33;41.30;42.00
12885;DHT22;6510;51.362;7.370;2023-07-08T13:01:02;42.00;40.50
12885;DHT22;6510;51.362;7.370;2023-07-08T13:03:37;43.30;44.20
12885;DHT22;6510;51.362;7.370;2023-07-08T13:06:07;43.20;41.70
12885;DHT22;6510;51.362;7.370;2023-07-08T13:08:36;42.30;41.80
12885;DHT22;6510;51.362;7.370;2023-07-08T13:11:03;42.10;39.90
12885;DHT22;6510;51.362;7.370;2023-07-08T13:13:35;40.90;41.90
12885;DHT22;6510;51.362;7.370;2023-07-08T13:16:03;41.80;41.40
12885;DHT22;6510;51.362;7.370;2023-07-08T13:18:36;41.50;42.00
12885;DHT22;6510;51.362;7.370;2023-07-08T13:21:04;41.00;42.20
12885;DHT22;6510;51.362;7.370;2023-07-08T13:23:30;40.50;43.50
12885;DHT22;6510;51.362;7.370;2023-07-08T13:25:57;40.20;42.30
12885;DHT22;6510;51.362;7.370;2023-07-08T13:28:25;40.10;45.00
12885;DHT22;6510;51.362;7.370;2023-07-08T13:30:55;39.30;42.50
12885;DHT22;6510;51.362;7.370;2023-07-08T13:33:21;41.30;41.40
12885;DHT22;6510;51.362;7.370;2023-07-08T13:35:47;41.50;42.10
12885;DHT22;6510;51.362;7.370;2023-07-08T13:38:19;41.10;43.70
12885;DHT22;6510;51.362;7.370;2023-07-08T13:40:48;40.40;42.80
12885;DHT22;6510;51.362;7.370;2023-07-08T13:43:14;40.10;42.80
12885;DHT22;6510;51.362;7.370;2023-07-08T13:45:45;37.80;43.70
12885;DHT22;6510;51.362;7.370;2023-07-08T13:51:16;38.50;45.10
12885;DHT22;6510;51.362;7.370;2023-07-08T13:53:44;38.20;44.40
12885;DHT22;6510;51.362;7.370;2023-07-08T13:56:23;37.60;45.30
12885;DHT22;6510;51.362;7.370;2023-07-08T13:58:54;39.10;45.00
12885;DHT22;6510;51.362;7.370;2023-07-08T14:01:25;38.60;45.30
12885;DHT22;6510;51.362;7.370;2023-07-08T14:03:53;38.60;44.40
12885;DHT22;6510;51.362;7.370;2023-07-08T14:06:23;38.50;45.50
12885;DHT22;6510;51.362;7.370;2023-07-08T14:08:53;38.70;43.70
12885;DHT22;6510;51.362;7.370;2023-07-08T14:11:19;39.40;44.70
12885;DHT22;6510;51.362;7.370;2023-07-08T14:13:45;39.10;43.80
12885;DHT22;6510;51.362;7.370;2023-07-08T14:16:24;36.50;46.80
12885;DHT22;6510;51.362;7.370;2023-07-08T14:18:50;34.50;47.70
12885;DHT22;6510;51.362;7.370;2023-07-08T14:21:17;33.60;50.30
12885;DHT22;6510;51.362;7.370;2023-07-08T14:23:43;33.50;49.50
12885;DHT22;6510;51.362;7.370;2023-07-08T14:26:12;33.50;50.30
12885;DHT22;6510;51.362;7.370;2023-07-08T14:28:38;34.20;51.90
12885;DHT22;6510;51.362;7.370;2023-07-08T14:31:11;34.80;49.50
12885;DHT22;6510;51.362;7.370;2023-07-08T14:33:38;35.40;50.70
12885;DHT22;6510;51.362;7.370;2023-07-08T14:36:10;35.70;49.90
12885;DHT22;6510;51.362;7.370;2023-07-08T14:38:36;35.60;48.60
12885;DHT22;6510;51.362;7.370;2023-07-08T14:41:02;35.40;49.90
12885;DHT22;6510;51.362;7.370;2023-07-08T14:43:30;35.60;50.70
12885;DHT22;6510;51.362;7.370;2023-07-08T14:46:02;35.70;51.80
12885;DHT22;6510;51.362;7.370;2023-07-08T14:48:29;35.90;48.40
12885;DHT22;6510;51.362;7.370;2023-07-08T14:50:56;35.50;50.10
12885;DHT22;6510;51.362;7.370;2023-07-08T14:53:22;35.30;49.50
12885;DHT22;6510;51.362;7.370;2023-07-08T14:55:50;35.40;50.00
12885;DHT22;6510;51.362;7.370;2023-07-08T14:58:23;35.40;49.60
12885;DHT22;6510;51.362;7.370;2023-07-08T15:00:51;35.40;48.20
12885;DHT22;6510;51.362;7.370;2023-07-08T15:03:17;35.80;48.60
12885;DHT22;6510;51.362;7.370;2023-07-08T15:05:43;36.10;48.10
12885;DHT22;6510;51.362;7.370;2023-07-08T15:08:09;36.40;49.20
12885;DHT22;6510;51.362;7.370;2023-07-08T15:10:36;36.50;47.40
12885;DHT22;6510;51.362;7.370;2023-07-08T15:13:03;36.10;48.10
12885;DHT22;6510;51.362;7.370;2023-07-08T15:15:33;35.90;51.20
12885;DHT22;6510;51.362;7.370;2023-07-08T15:18:01;35.80;48.70
12885;DHT22;6510;51.362;7.370;2023-07-08T15:20:32;35.10;50.00
12885;DHT22;6510;51.362;7.370;2023-07-08T15:22:58;34.80;50.40
12885;DHT22;6510;51.362;7.370;2023-07-08T15:25:24;35.00;50.20
12885;DHT22;6510;51.362;7.370;2023-07-08T15:27:52;34.90;50.40
12885;DHT22;6510;51.362;7.370;2023-07-08T15:30:23;35.00;49.90
12885;DHT22;6510;51.362;7.370;2023-07-08T15:32:50;35.10;50.60
12885;DHT22;6510;51.362;7.370;2023-07-08T15:35:19;35.10;50.30
12885;DHT22;6510;51.362;7.370;2023-07-08T15:37:45;35.10;50.60
12885;DHT22;6510;51.362;7.370;2023-07-08T15:40:17;34.80;49.50
12885;DHT22;6510;51.362;7.370;2023-07-08T15:42:47;34.80;50.60
12885;DHT22;6510;51.362;7.370;2023-07-08T15:45:14;34.70;51.00
12885;DHT22;6510;51.362;7.370;2023-07-08T15:47:40;34.50;50.00
12885;DHT22;6510;51.362;7.370;2023-07-08T15:50:12;34.70;51.40
12885;DHT22;6510;51.362;7.370;2023-07-08T15:52:38;34.70;50.40
12885;DHT22;6510;51.362;7.370;2023-07-08T15:55:04;34.70;50.50
12885;DHT22;6510;51.362;7.370;2023-07-08T15:57:29;34.60;50.60
12885;DHT22;6510;51.362;7.370;2023-07-08T15:59:55;34.60;51.10
12885;DHT22;6510;51.362;7.370;2023-07-08T16:02:27;34.50;51.20
12885;DHT22;6510;51.362;7.370;2023-07-08T16:04:53;34.40;51.90
12885;DHT22;6510;51.362;7.370;2023-07-08T16:07:18;34.20;53.10
12885;DHT22;6510;51.362;7.370;2023-07-08T16:09:44;34.00;52.70
12885;DHT22;6510;51.362;7.370;2023-07-08T16:12:12;33.40;54.20
12885;DHT22;6510;51.362;7.370;2023-07-08T16:14:41;33.40;54.50
12885;DHT22;6510;51.362;7.370;2023-07-08T16:17:10;33.40;52.90
12885;DHT22;6510;51.362;7.370;2023-07-08T16:19:36;33.20;54.40
12885;DHT22;6510;51.362;7.370;2023-07-08T16:22:02;33.10;53.70
12885;DHT22;6510;51.362;7.370;2023-07-08T16:24:28;32.90;55.00
12885;DHT22;6510;51.362;7.370;2023-07-08T16:26:54;32.80;55.40
12885;DHT22;6510;51.362;7.370;2023-07-08T16:29:21;32.80;55.60
12885;DHT22;6510;51.362;7.370;2023-07-08T16:31:47;33.00;54.20
12885;DHT22;6510;51.362;7.370;2023-07-08T16:34:14;33.10;55.10
12885;DHT22;6510;51.362;7.370;2023-07-08T16:36:39;33.20;55.40
12885;DHT22;6510;51.362;7.370;2023-07-08T16:39:06;33.40;55.30
12885;DHT22;6510;51.362;7.370;2023-07-08T16:41:34;33.30;55.80
12885;DHT22;6510;51.362;7.370;2023-07-08T16:44:02;33.30;55.90
12885;DHT22;6510;51.362;7.370;2023-07-08T16:46:28;33.30;55.50
12885;DHT22;6510;51.362;7.370;2023-07-08T16:48:53;33.20;55.20
12885;DHT22;6510;51.362;7.370;2023-07-08T16:51:25;33.10;55.90
12885;DHT22;6510;51.362;7.370;2023-07-08T16:53:56;32.90;55.80
12885;DHT22;6510;51.362;7.370;2023-07-08T16:56:25;32.70;57.90